Flight Track Log - Related Links

Times and Time Zones

All times are in EDT time to prevent confusion due to time zone crossing. See the SWA311 flight status page for this flight to view local times or setup timezone preferences in your user account.

Time Position Orientation Groundspeed Altitude Reporting Facility
EDT Latitude Longitude Course Direction KTS MPH feet Rate Location/Type
Thu 18:54:01 29.6758 -95.2961 344° North 186 214 2,000  Level Houston Center
Thu 18:55:03 29.7331 -95.3014 355° North 211 243 5,200 2,769 Climbing Houston Center
Thu 18:55:19 29.7458 -95.3025 356° North 215 247 5,600 3,462 Climbing Houston Center
Thu 18:56:21 29.8189 -95.3078 356° North 261 300 9,700 3,048 Climbing Houston Center
Thu 18:57:23 29.8950 -95.3456 337° Northwest 297 342 11,900 3,242 Climbing Houston Center
Thu 18:58:25 30.0019 -95.3972 337° Northwest 343 395 16,400 3,677 Climbing Houston Center
Thu 18:59:27 30.0922 -95.4408 337° Northwest 349 402 19,500 2,855 Climbing Houston Center
Thu 19:00:29 30.1864 -95.4869 337° Northwest 361 415 22,300 2,226 Climbing Houston Center
Thu 19:01:31 30.2844 -95.5317 339° North 373 429 24,100 1,920 Climbing Houston Center
Thu 19:02:34 30.3839 -95.5806 337° Northwest 385 443 26,300 2,064 Climbing Houston Center
Thu 19:03:36 30.4875 -95.6297 338° Northwest 397 457 28,400 1,935 Climbing Houston Center
Thu 19:04:38 30.6161 -95.6947 336° Northwest 418 481 30,300 1,790 Climbing Houston Center
Thu 19:05:40 30.7231 -95.7522 335° Northwest 430 495 32,100 1,935 Climbing Houston Center
Thu 19:06:42 30.8317 -95.8097 336° Northwest 426 490 34,300 1,935 Climbing Houston Center
Thu 19:07:44 30.9344 -95.8667 335° Northwest 412 474 36,100 1,548 Climbing Houston Center
Thu 19:08:46 31.0414 -95.9225 336° Northwest 414 476 37,500 1,113 Climbing Houston Center
Thu 19:09:48 31.1719 -95.9800 339° North 421 484 38,400 677 Climbing Houston Center
Thu 19:10:50 31.2972 -96.0081 349° North 449 517 38,900 290 Climbing Houston Center
Thu 19:11:52 31.4208 -96.0372 349° North 452 520 39,000 53 Climbing Houston Center
Thu 19:12:43 31.5339 -96.0631 349° North 449 517 39,000  Level Fort Worth Center
Thu 19:13:43 31.6444 -96.0517 North 444 511 39,000  Level Fort Worth Center
Thu 19:14:43 31.7644 -95.9692 30° Northeast 462 532 39,000 250 Level Fort Worth Center
Thu 19:15:43 31.8783 -95.8892 31° Northeast 471 542 39,500 800 Climbing Fort Worth Center
Thu 19:16:43 32.0108 -95.7939 31° Northeast 492 566 40,600 750 Climbing Fort Worth Center
Thu 19:17:43 32.1144 -95.7208 31° Northeast 492 566 41,000 200 Climbing Fort Worth Center
Thu 19:18:43 32.2300 -95.6378 31° Northeast 492 566 41,000  Level Fort Worth Center
Thu 19:19:43 32.3481 -95.5567 30° Northeast 484 557 41,000  Level Fort Worth Center
Thu 19:20:43 32.4656 -95.4731 31° Northeast 484 557 41,000  Level Fort Worth Center
Thu 19:21:43 32.5811 -95.3892 31° Northeast 484 557 41,000  Level Fort Worth Center
Thu 19:22:43 32.6947 -95.3103 30° Northeast 484 557 41,000  Level Fort Worth Center
Thu 19:23:43 32.8206 -95.2183 32° Northeast 473 544 41,000  Level Fort Worth Center
Thu 19:24:43 32.9358 -95.1339 32° Northeast 473 544 41,000  Level Fort Worth Center
Thu 19:25:43 33.0514 -95.0514 31° Northeast 473 544 41,000  Level Fort Worth Center
Thu 19:26:43 33.1667 -94.9692 31° Northeast 478 550 41,000  Level Fort Worth Center
Thu 19:27:43 33.2839 -94.8864 31° Northeast 478 550 41,000  Level Fort Worth Center
Thu 19:28:43 33.3969 -94.8033 32° Northeast 478 550 41,000  Level Fort Worth Center
Thu 19:29:43 33.5122 -94.7203 31° Northeast 478 550 41,000  Level Fort Worth Center
Thu 19:30:43 33.6272 -94.6369 31° Northeast 478 550 41,000  Level Fort Worth Center
Thu 19:31:43 33.7422 -94.5508 32° Northeast 478 550 41,000  Level Fort Worth Center
Thu 19:32:43 33.8592 -94.4669 31° Northeast 483 556 41,000  Level Fort Worth Center
Thu 19:35:08 34.1367 -94.2619 31° Northeast 489 563 41,000  Level Memphis Center
Thu 19:36:08 34.2542 -94.1767 31° Northeast 484 557 41,000  Level Memphis Center
Thu 19:37:08 34.3694 -94.0889 32° Northeast 489 563 41,000  Level Memphis Center
Thu 19:38:08 34.4614 -94.0172 33° Northeast 489 563 41,000  Level Memphis Center
Thu 19:39:08 34.5839 -93.8889 41° Northeast 484 557 41,000  Level Memphis Center
Thu 19:40:08 34.6772 -93.7664 47° Northeast 484 557 41,000  Level Memphis Center
Thu 19:41:08 34.7719 -93.6489 46° Northeast 490 564 41,000  Level Memphis Center
Thu 19:42:08 34.8672 -93.5233 47° Northeast 490 564 41,000  Level Memphis Center
Thu 19:43:08 34.9600 -93.4003 47° Northeast 490 564 41,000  Level Memphis Center
Thu 19:44:08 35.0547 -93.2767 47° Northeast 490 564 41,000  Level Memphis Center
Thu 19:45:08 35.1383 -93.1731 45° Northeast 490 564 41,000  Level Memphis Center
Thu 19:46:08 35.2308 -93.0492 48° Northeast 485 558 41,000  Level Memphis Center
Thu 19:47:08 35.3250 -92.9325 45° Northeast 485 558 41,000  Level Memphis Center
Thu 19:48:08 35.4175 -92.8003 49° Northeast 492 566 41,000  Level Memphis Center
Thu 19:49:09 35.5200 -92.6631 47° Northeast 498 573 41,000  Level Memphis Center
Thu 19:50:08 35.6056 -92.5481 48° Northeast 504 580 41,000  Level Memphis Center
Thu 19:51:08 35.7017 -92.4225 47° Northeast 504 580 41,000  Level Memphis Center
Thu 19:52:08 35.7933 -92.2994 47° Northeast 498 573 41,000  Level Memphis Center
Thu 19:53:08 35.8847 -92.1736 48° Northeast 498 573 41,000  Level Memphis Center
Thu 19:54:08 35.9869 -92.0347 48° Northeast 498 573 41,000  Level Memphis Center
Thu 19:55:08 36.0822 -91.9056 48° Northeast 492 566 41,000  Level Memphis Center
Thu 19:56:08 36.1608 -91.7942 49° Northeast 492 566 41,000  Level Memphis Center
Thu 19:57:08 36.2581 -91.6644 47° Northeast 492 566 41,000  Level Memphis Center
Thu 19:58:08 36.3511 -91.5344 48° Northeast 492 566 41,000  Level Memphis Center
Thu 19:59:08 36.4461 -91.4017 48° Northeast 497 572 41,000  Level Memphis Center
Thu 20:00:08 36.5536 -91.2586 47° Northeast 506 582 41,000  Level Memphis Center
Thu 20:01:08 36.6461 -91.1250 49° Northeast 512 589 41,000  Level Memphis Center
Thu 20:02:09 36.7281 -91.0092 49° Northeast 507 583 41,000  Level Memphis Center
Thu 20:03:08 36.8267 -90.8753 47° Northeast 507 583 41,000  Level Memphis Center
Thu 20:04:08 36.9189 -90.7461 48° Northeast 502 578 41,000  Level Memphis Center
Thu 20:06:20 37.1269 -90.4506 49° Northeast 512 589 41,000  Level Kansas City Center
Thu 20:07:23 37.2186 -90.3181 49° Northeast 507 583 41,000  Level Kansas City Center
Thu 20:08:24 37.3122 -90.1836 49° Northeast 507 583 41,000  Level Kansas City Center
Thu 20:09:28 37.4053 -90.0478 49° Northeast 509 586 41,000  Level Kansas City Center
Thu 20:10:28 37.5189 -89.8839 49° Northeast 513 590 41,000  Level Kansas City Center
Thu 20:11:32 37.5981 -89.7686 49° Northeast 513 590 41,000  Level Kansas City Center
Thu 20:12:33 37.7100 -89.6056 49° Northeast 514 592 41,000  Level Kansas City Center
Thu 20:13:34 37.8039 -89.4669 49° Northeast 519 597 41,000  Level Kansas City Center
Thu 20:14:38 37.9064 -89.3169 49° Northeast 526 605 41,000  Level Kansas City Center
Thu 20:15:38 38.0064 -89.1692 49° Northeast 519 597 41,000  Level Kansas City Center
Thu 20:16:40 38.0983 -89.0322 50° Northeast 514 592 41,000  Level Kansas City Center
Thu 20:17:44 38.1922 -88.8881 50° Northeast 509 586 41,000  Level Kansas City Center
Thu 20:18:44 38.2836 -88.7500 50° Northeast 511 588 41,000  Level Kansas City Center
Thu 20:19:48 38.3747 -88.6147 49° Northeast 514 592 41,000  Level Kansas City Center
Thu 20:20:49 38.4686 -88.4758 49° Northeast 514 592 41,000  Level Kansas City Center
Thu 20:21:50 38.5611 -88.3358 50° Northeast 513 590 41,000  Level Kansas City Center
Thu 20:22:54 38.6728 -88.1644 50° Northeast 515 593 41,000  Level Kansas City Center
Thu 20:23:55 38.7692 -88.0172 50° Northeast 526 605 41,000  Level Kansas City Center
Thu 20:24:56 38.8644 -87.8697 50° Northeast 533 613 41,000  Level Kansas City Center
Thu 20:25:35 38.9067 -87.7736 61° Northeast 534 615 41,000  Level Indianapolis Center
Thu 20:26:37 38.9808 -87.6092 60° Northeast 530 610 41,000  Level Indianapolis Center
Thu 20:27:39 39.0556 -87.4422 60° Northeast 532 612 41,000  Level Indianapolis Center
Thu 20:28:41 39.1314 -87.2722 60° Northeast 540 621 41,000  Level Indianapolis Center
Thu 20:29:42 39.2061 -87.1022 60° Northeast 542 624 41,000  Level Indianapolis Center
Thu 20:30:44 39.2825 -86.9300 60° Northeast 548 631 41,000  Level Indianapolis Center
Thu 20:31:46 39.3736 -86.7222 60° Northeast 549 632 41,000  Level Indianapolis Center
Thu 20:32:47 39.4483 -86.5492 61° Northeast 548 631 41,000  Level Indianapolis Center
Thu 20:33:49 39.5242 -86.3761 60° Northeast 547 629 41,000  Level Indianapolis Center
Thu 20:34:51 39.5986 -86.2025 61° Northeast 549 632 41,000  Level Indianapolis Center
Thu 20:35:53 39.6739 -86.0300 60° Northeast 546 628 41,000  Level Indianapolis Center
Thu 20:36:55 39.7428 -85.8631 62° Northeast 546 628 41,000  Level Indianapolis Center
Thu 20:37:56 39.8308 -85.6594 61° Northeast 548 631 41,000  Level Indianapolis Center
Thu 20:38:58 39.9050 -85.4822 61° Northeast 553 636 41,000  Level Indianapolis Center
Thu 20:40:00 39.9797 -85.3039 61° Northeast 555 639 41,000  Level Indianapolis Center
Thu 20:41:02 40.0544 -85.1231 62° Northeast 559 643 41,000  Level Indianapolis Center
Thu 20:42:03 40.1289 -84.9419 62° Northeast 563 648 41,000  Level Indianapolis Center
Thu 20:43:05 40.2039 -84.7597 62° Northeast 563 648 41,000  Level Indianapolis Center
Thu 20:44:07 40.2800 -84.5750 62° Northeast 567 652 41,000  Level Indianapolis Center
Thu 20:45:09 40.3544 -84.3903 62° Northeast 568 654 41,000  Level Indianapolis Center
Thu 20:46:11 40.4303 -84.2044 62° Northeast 569 655 41,000  Level Indianapolis Center
Thu 20:47:12 40.5047 -84.0181 62° Northeast 570 656 41,000  Level Indianapolis Center
Thu 20:48:14 40.5792 -83.8319 62° Northeast 568 654 41,000  Level Indianapolis Center
Thu 20:49:16 40.6653 -83.6133 63° Northeast 568 654 41,000  Level Indianapolis Center
Thu 20:50:18 40.7375 -83.4272 63° Northeast 565 650 41,000  Level Indianapolis Center
Thu 20:51:19 40.7944 -83.2269 69° East 561 646 41,000  Level Indianapolis Center
Thu 20:52:21 40.8311 -83.0256 76° East 545 627 41,000  Level Cleveland Center
Thu 20:53:21 40.8558 -82.8314 80° East 545 627 41,000  Level Cleveland Center
Thu 20:54:21 40.8867 -82.6347 78° East 545 627 41,000  Level Cleveland Center
Thu 20:55:21 40.9172 -82.4406 78° East 540 621 41,000  Level Cleveland Center
Thu 20:56:21 40.9494 -82.2408 78° East 547 629 41,000  Level Cleveland Center
Thu 20:57:21 40.9792 -82.0436 79° East 547 629 41,000  Level Cleveland Center
Thu 20:58:21 41.0000 -81.8706 81° East 541 623 41,000  Level Cleveland Center
Thu 20:59:21 41.0356 -81.6483 78° East 553 636 41,000  Level Cleveland Center
Thu 21:00:21 41.0644 -81.4506 79° East 553 636 41,000  Level Cleveland Center
Thu 21:01:21 41.0928 -81.2497 79° East 553 636 41,000  Level Cleveland Center
Thu 21:02:21 41.1189 -81.0708 79° East 553 636 41,000  Level Cleveland Center
Thu 21:03:21 41.1467 -80.8728 79° East 548 631 41,000  Level Cleveland Center
Thu 21:04:21 41.1761 -80.6714 79° East 548 631 41,000  Level Cleveland Center
Thu 21:05:21 41.2033 -80.4756 79° East 548 631 41,000  Level Cleveland Center
Thu 21:06:21 41.2300 -80.2767 80° East 543 625 41,000  Level Cleveland Center
Thu 21:07:21 41.2564 -80.0778 80° East 543 625 41,000  Level Cleveland Center
Thu 21:08:21 41.2844 -79.8647 80° East 536 617 41,000  Level Cleveland Center
Thu 21:09:21 41.3103 -79.6708 80° East 531 611 41,000  Level Cleveland Center
Thu 21:10:21 41.3336 -79.4881 80° East 537 618 41,000  Level Cleveland Center
Thu 21:11:21 41.3583 -79.2775 81° East 537 618 41,000  Level Cleveland Center
Thu 21:12:21 41.3811 -79.0861 81° East 530 610 41,000 -350 Level Cleveland Center
Thu 21:13:21 41.3911 -78.8947 86° East 524 603 40,300 -850 Descending Cleveland Center
Thu 21:14:21 41.3881 -78.7067 91° East 519 597 39,300 -950 Descending Cleveland Center
Thu 21:15:21 41.3847 -78.5186 91° East 511 588 38,400 -950 Descending Cleveland Center
Thu 21:16:21 41.3811 -78.3250 91° East 511 588 37,400 -1,370 Descending Cleveland Center
Thu 21:18:03 41.3728 -78.0231 92° East 527 606 34,700 -2,098 Descending New York Center
Thu 21:19:04 41.3697 -77.8347 91° East 527 606 31,700 -1,805 Descending New York Center
Thu 21:20:06 41.3636 -77.6514 92° East 514 592 31,000 -350 Descending New York Center
Thu 21:21:04 41.3617 -77.4689 91° East 500 575 31,000  Level New York Center
Thu 21:22:05 41.3531 -77.2881 94° East 500 575 31,000  Level New York Center
Thu 21:23:04 41.3481 -77.1081 92° East 500 575 31,000 -350 Level New York Center
Thu 21:24:05 41.3433 -76.9225 92° East 500 575 30,300 -1,488 Descending New York Center
Thu 21:25:05 41.3272 -76.7494 97° East 494 568 28,000 -2,319 Descending New York Center
Thu 21:26:04 41.2872 -76.5858 108° East 469 540 25,700 -2,269 Descending New York Center
Thu 21:27:04 41.2447 -76.4333 110° East 458 527 23,500 -1,900 Descending New York Center
Thu 21:28:04 41.2039 -76.2808 110° East 443 510 21,900 -1,289 Descending New York Center
Thu 21:29:05 41.1650 -76.1344 109° East 426 490 20,900 -1,140 Descending New York Center
Thu 21:30:05 41.1253 -75.9933 110° East 421 484 19,600 -1,750 Descending New York Center
Thu 21:31:05 41.0897 -75.8531 109° East 411 473 17,400 -2,400 Descending New York Center
Thu 21:32:05 41.0481 -75.7042 110° East 393 452 14,800 -2,231 Descending New York Center
Thu 21:33:06 41.0119 -75.5694 110° East 393 452 12,900 -958 Descending New York Center
Thu 21:34:04 40.9792 -75.4572 111° Southeast 382 440 12,900 -305 Level New York Center
Thu 21:35:04 40.9442 -75.3339 111° Southeast 375 432 12,300 -1,279 Descending New York Center
Thu 21:36:06 40.9075 -75.2025 110° East 354 407 10,300 -1,450 Descending New York Center
Thu 21:37:04 40.8761 -75.0933 111° Southeast 335 386 9,400 -1,271 Descending New York Center
Thu 21:38:04 40.8467 -74.9872 110° East 316 364 7,800 -1,240 Descending New York Center
Thu 21:39:05 40.8250 -74.8956 107° East 300 345 6,900 -893 Descending New York Center
Thu 21:40:05 40.8722 -74.7939 58° Northeast 261 300 6,000 -446 Descending New York Center
Thu 21:41:06 40.9306 -74.7342 38° Northeast 273 314 6,000  Level New York Center
Thu 21:42:03 40.9950 -74.6722 36° Northeast 273 314 6,000  Level New York Center
Thu 21:43:04 41.0306 -74.6081 54° Northeast 243 280 6,000  Level New York Center
Thu 21:44:06 40.9753 -74.5747 156° South 127 146 6,000  Level New York Center
Thu 21:45:04 40.9250 -74.5883 192° South 165 190 6,000  Level New York Center
Thu 21:46:04 40.8664 -74.5961 186° South 198 228 6,000  Level New York Center
Thu 21:46:29 40.8500 -74.5833 149° Southeast 199 229 6,000 -353 Level New York TRACON
Thu 21:47:29 40.7833 -74.5667 169° South 190 219 5,500 -500 Descending New York TRACON
Thu 21:48:29 40.7333 -74.5500 166° South 188 216 5,000 -250 Descending New York TRACON
Thu 21:49:29 40.6833 -74.5667 194° South 194 223 5,000  Level New York TRACON
Thu 21:50:29 40.6333 -74.5667 180° South 194 223 5,000  Level New York TRACON
Thu 21:51:29 40.5833 -74.5833 194° South 197 227 5,000  Level New York TRACON
Thu 21:52:29 40.5333 -74.6167 207° Southwest 193 222 5,000  Level New York TRACON
Thu 21:53:29 40.5000 -74.6500 217° Southwest 184 212 5,000  Level New York TRACON
Thu 21:54:29 40.4500 -74.6667 194° South 198 228 5,000  Level New York TRACON
Thu 21:55:29 40.4167 -74.6167 131° Southeast 201 231 5,000 -397 Level New York TRACON
Thu 21:56:30 40.3833 -74.5667 131° Southeast 196 226 4,200 -645 Descending New York TRACON
Thu 21:57:30 40.3667 -74.5000 108° East 189 217 3,700 -500 Descending New York TRACON
Thu 21:58:30 40.3833 -74.4333 72° East 178 205 3,200 -350 Descending New York TRACON
Thu 21:59:30 40.4000 -74.3833 66° East 161 185 3,000 -200 Descending New York TRACON

Login

Don't have an account? Register now (free) for customized features, flight alerts, and more!